Time;durP1;ratioP1;P1;durP2;ratioP2;P2;SDS_P1;SDS_P2;PMS_P1;PMS_P2;Temp;Humidity;BMP_temperature;BMP_pressure;BME280_temperature;BME280_humidity;BME280_pressure;Samples;Min_cycle;Max_cycle;Signal;HPM_P1;HPM_P2
2023/07/25 00:02:24;;;;;;;5.18;3.20;;;15.50;99.90;;;;;;5035791;28;20044;-64
2023/07/25 00:04:49;;;;;;;4.32;3.28;;;15.50;99.90;;;;;;5043461;28;20041;-65
2023/07/25 00:07:15;;;;;;;4.68;3.50;;;15.50;99.90;;;;;;5042467;28;20029;-65
2023/07/25 00:09:40;;;;;;;4.65;2.83;;;15.50;99.90;;;;;;5032090;28;20084;-65
2023/07/25 00:12:06;;;;;;;6.28;3.45;;;15.50;99.90;;;;;;5037959;28;20274;-65
2023/07/25 00:14:33;;;;;;;4.75;3.63;;;15.50;99.90;;;;;;5050735;28;20032;-65
2023/07/25 00:16:59;;;;;;;3.53;2.78;;;15.40;99.90;;;;;;5040496;28;20078;-65
2023/07/25 00:19:25;;;;;;;6.15;3.58;;;15.40;99.90;;;;;;5032055;28;20029;-64
2023/07/25 00:21:50;;;;;;;4.03;2.90;;;15.40;99.90;;;;;;5047241;28;20581;-65
2023/07/25 00:24:16;;;;;;;4.32;3.25;;;15.30;99.90;;;;;;5031966;28;20076;-65
2023/07/25 00:26:41;;;;;;;5.38;3.95;;;15.30;99.90;;;;;;5048783;28;20024;-65
2023/07/25 00:29:07;;;;;;;5.40;4.15;;;15.30;99.90;;;;;;5031599;28;20305;-65
2023/07/25 00:31:32;;;;;;;4.40;3.17;;;15.20;99.90;;;;;;5048330;28;20067;-64
2023/07/25 00:33:58;;;;;;;3.30;2.88;;;15.20;99.90;;;;;;5051184;28;20036;-65
2023/07/25 00:36:23;;;;;;;5.50;3.35;;;15.20;99.90;;;;;;5035195;28;20033;-64
2023/07/25 00:38:49;;;;;;;5.53;3.15;;;15.10;99.90;;;;;;5050930;28;20218;-65
2023/07/25 00:41:14;;;;;;;4.22;3.42;;;15.10;99.90;;;;;;5033749;28;20427;-65
2023/07/25 00:43:40;;;;;;;4.70;3.42;;;15.10;99.90;;;;;;5050948;28;20120;-65
2023/07/25 00:46:05;;;;;;;7.90;3.65;;;15.10;99.90;;;;;;5032688;28;20033;-65
2023/07/25 00:48:31;;;;;;;7.38;3.33;;;15.10;99.90;;;;;;5050787;28;20473;-65
2023/07/25 00:50:57;;;;;;;3.95;3.10;;;15.10;99.90;;;;;;5031193;28;20040;-65
2023/07/25 00:53:25;;;;;;;5.28;3.90;;;15.10;99.90;;;;;;5050877;28;20449;-65
2023/07/25 00:55:50;;;;;;;6.10;3.80;;;15.00;99.90;;;;;;5029361;28;20021;-65
2023/07/25 00:58:17;;;;;;;5.00;3.70;;;15.10;99.90;;;;;;5050862;28;20029;-64
2023/07/25 01:00:44;;;;;;;7.40;3.65;;;15.10;99.90;;;;;;5031040;28;20033;-65
2023/07/25 01:03:11;;;;;;;5.50;3.58;;;15.10;99.90;;;;;;5010765;28;20111;-65
2023/07/25 01:05:46;;;;;;;7.00;3.35;;;15.10;99.90;;;;;;5032582;28;20517;-65
2023/07/25 01:08:12;;;;;;;3.40;3.05;;;15.10;99.90;;;;;;5010711;28;20037;-65
2023/07/25 01:10:41;;;;;;;4.72;3.80;;;15.20;99.90;;;;;;5049026;28;20619;-65
2023/07/25 01:13:06;;;;;;;5.78;3.60;;;15.20;99.90;;;;;;5028981;28;20230;-65
2023/07/25 01:15:32;;;;;;;4.75;3.60;;;15.20;99.90;;;;;;5049599;28;20021;-64
2023/07/25 01:17:59;;;;;;;4.57;3.47;;;15.20;99.90;;;;;;5029111;28;20026;-65
2023/07/25 01:20:25;;;;;;;3.83;3.13;;;15.20;99.90;;;;;;5049725;28;20032;-65
2023/07/25 01:22:52;;;;;;;3.53;3.22;;;15.20;99.90;;;;;;5028896;28;20154;-65
2023/07/25 01:25:18;;;;;;;3.97;3.00;;;15.20;99.90;;;;;;5049603;28;20539;-65
2023/07/25 01:27:43;;;;;;;4.55;2.63;;;15.20;99.90;;;;;;5028974;28;20037;-65
2023/07/25 01:30:09;;;;;;;4.28;3.13;;;15.20;99.90;;;;;;5044587;28;20168;-64
2023/07/25 01:32:35;;;;;;;4.50;2.85;;;15.20;99.90;;;;;;5043286;28;20476;-65
2023/07/25 01:35:00;;;;;;;4.88;3.80;;;15.20;99.90;;;;;;5030709;28;20033;-65
2023/07/25 01:37:26;;;;;;;5.97;3.35;;;15.20;99.90;;;;;;5033608;28;20480;-64
2023/07/25 01:39:51;;;;;;;4.40;3.05;;;15.10;99.90;;;;;;5048906;28;20488;-64
2023/07/25 01:42:17;;;;;;;4.50;2.95;;;15.10;99.90;;;;;;5028181;28;20486;-64
2023/07/25 01:44:42;;;;;;;3.85;3.03;;;15.10;99.90;;;;;;5048959;28;20041;-65
2023/07/25 01:47:08;;;;;;;5.97;3.55;;;15.00;99.90;;;;;;5028466;28;20026;-64
2023/07/25 01:49:33;;;;;;;3.40;2.83;;;15.00;99.90;;;;;;5048881;28;20603;-64
2023/07/25 01:51:59;;;;;;;3.45;2.88;;;15.00;99.90;;;;;;5038543;28;20037;-65
2023/07/25 01:54:25;;;;;;;3.50;3.15;;;14.90;99.90;;;;;;5030105;28;20030;-64
2023/07/25 01:56:50;;;;;;;4.50;3.13;;;14.90;99.90;;;;;;5045536;28;20028;-64
2023/07/25 01:59:16;;;;;;;4.65;3.08;;;14.90;99.90;;;;;;5030272;28;20029;-64
2023/07/25 02:01:42;;;;;;;4.80;3.33;;;14.90;99.90;;;;;;5046848;28;20207;-64
2023/07/25 02:04:07;;;;;;;6.15;3.22;;;14.90;99.90;;;;;;5029844;28;20120;-64
2023/07/25 02:06:33;;;;;;;5.10;3.25;;;14.90;99.90;;;;;;5040484;28;20036;-65
2023/07/25 02:08:58;;;;;;;4.68;3.38;;;14.80;99.90;;;;;;5049332;28;20029;-64
2023/07/25 02:11:24;;;;;;;5.72;3.83;;;14.80;99.90;;;;;;5032184;28;20033;-64
2023/07/25 02:13:49;;;;;;;5.68;4.07;;;14.80;99.90;;;;;;5049004;28;20616;-64
2023/07/25 02:16:15;;;;;;;4.70;3.88;;;14.80;99.90;;;;;;5032159;28;20476;-64
2023/07/25 02:18:40;;;;;;;6.55;4.28;;;14.90;99.90;;;;;;5049229;28;20021;-64
2023/07/25 02:21:06;;;;;;;7.18;4.20;;;14.90;99.90;;;;;;5030889;28;20033;-64
2023/07/25 02:23:31;;;;;;;5.40;3.90;;;14.90;99.90;;;;;;5048915;28;20028;-64
2023/07/25 02:25:57;;;;;;;6.95;4.88;;;15.00;99.90;;;;;;5029665;28;20114;-64
2023/07/25 02:28:22;;;;;;;6.00;4.90;;;15.10;99.90;;;;;;5047791;28;20013;-64
2023/07/25 02:30:48;;;;;;;8.88;5.38;;;15.10;99.90;;;;;;5036802;28;20151;-64
2023/07/25 02:33:14;;;;;;;6.18;4.78;;;15.20;99.90;;;;;;5048919;28;20029;-64
2023/07/25 02:35:39;;;;;;;6.05;4.28;;;15.20;99.90;;;;;;5029442;28;20116;-64
2023/07/25 02:38:05;;;;;;;5.75;4.20;;;15.20;99.90;;;;;;5046622;28;20029;-64
2023/07/25 02:40:30;;;;;;;6.10;4.70;;;15.30;99.90;;;;;;5029012;28;20492;-64
2023/07/25 02:42:56;;;;;;;7.75;5.35;;;15.30;99.90;;;;;;5028403;28;20572;-64
2023/07/25 02:45:21;;;;;;;5.93;4.90;;;15.40;99.90;;;;;;5048021;28;20029;-64
2023/07/25 02:47:47;;;;;;;7.20;5.47;;;15.40;99.90;;;;;;5027474;28;20025;-64
2023/07/25 02:50:12;;;;;;;8.38;5.43;;;15.40;99.90;;;;;;5046656;28;20450;-64
2023/07/25 02:52:38;;;;;;;7.95;5.53;;;15.40;99.90;;;;;;5026703;28;20033;-63
2023/07/25 02:58:25;;;;;;;7.53;5.22;;;15.40;99.90;;;;;;5009159;28;20168;-63
2023/07/25 03:00:51;;;;;;;5.47;4.90;;;15.40;99.90;;;;;;5060360;28;20535;-63
2023/07/25 03:03:16;;;;;;;7.97;5.30;;;15.40;99.90;;;;;;5048943;28;20396;-64
2023/07/25 03:05:42;;;;;;;5.80;4.57;;;15.50;99.90;;;;;;5036639;28;20404;-63
2023/07/25 03:08:07;;;;;;;9.70;5.70;;;15.40;99.90;;;;;;5046532;28;20056;-64
2023/07/25 03:10:33;;;;;;;6.38;4.90;;;15.40;99.90;;;;;;5028818;28;20025;-64
2023/07/25 03:12:59;;;;;;;6.82;5.18;;;15.40;99.90;;;;;;5027571;28;20392;-64
2023/07/25 03:15:24;;;;;;;6.22;4.65;;;15.50;99.90;;;;;;5047682;28;20428;-63
2023/07/25 03:17:50;;;;;;;6.90;5.20;;;15.50;99.90;;;;;;5026964;28;20025;-64
2023/07/25 03:20:15;;;;;;;6.10;4.43;;;15.50;99.90;;;;;;5047841;28;20021;-64
2023/07/25 03:22:41;;;;;;;6.72;5.00;;;15.50;99.90;;;;;;5027207;28;20072;-63
2023/07/25 03:25:07;;;;;;;5.57;4.18;;;15.50;99.90;;;;;;5047432;28;20040;-64
2023/07/25 03:27:32;;;;;;;7.15;5.05;;;15.50;99.90;;;;;;5026880;28;20044;-63
2023/07/25 03:29:58;;;;;;;6.22;4.47;;;15.50;99.90;;;;;;5044579;28;20045;-63
2023/07/25 03:32:23;;;;;;;6.75;4.15;;;15.60;99.90;;;;;;5039959;28;20033;-63
2023/07/25 03:34:49;;;;;;;7.40;5.38;;;15.60;99.90;;;;;;5028608;28;20344;-63
2023/07/25 03:37:14;;;;;;;7.45;4.78;;;15.60;99.90;;;;;;5033257;28;20375;-63
2023/07/25 03:39:40;;;;;;;8.70;5.07;;;15.60;99.90;;;;;;5047463;28;20029;-64
2023/07/25 03:42:06;;;;;;;6.95;4.97;;;15.60;99.90;;;;;;5027217;28;20033;-64
2023/07/25 03:44:31;;;;;;;6.13;4.88;;;15.60;99.90;;;;;;5047059;28;20201;-63
2023/07/25 03:46:57;;;;;;;6.63;4.97;;;15.60;99.90;;;;;;5036728;28;20029;-64
2023/07/25 03:49:22;;;;;;;8.07;5.10;;;15.60;99.90;;;;;;5028684;28;20103;-63
2023/07/25 03:51:47;;;;;;;8.38;5.15;;;15.60;99.90;;;;;;5045280;28;20438;-63
2023/07/25 03:54:14;;;;;;;5.82;4.70;;;15.60;99.90;;;;;;5028599;28;20130;-63
2023/07/25 03:56:39;;;;;;;6.07;4.75;;;15.60;99.90;;;;;;5045534;28;20465;-63
2023/07/25 03:59:05;;;;;;;9.90;5.25;;;15.60;99.90;;;;;;5048025;28;20035;-63
2023/07/25 04:01:31;;;;;;;7.97;4.63;;;15.60;99.90;;;;;;5032784;28;20040;-63
2023/07/25 04:03:56;;;;;;;8.82;5.90;;;15.60;99.90;;;;;;5048333;28;20029;-63
2023/07/25 04:06:22;;;;;;;6.90;4.80;;;15.60;99.90;;;;;;5029753;28;20100;-63
2023/07/25 04:08:47;;;;;;;6.63;4.40;;;15.60;99.90;;;;;;5051418;28;20040;-63
2023/07/25 04:11:13;;;;;;;8.23;4.50;;;15.60;99.90;;;;;;5034141;28;20036;-63
2023/07/25 04:13:39;;;;;;;5.97;3.85;;;15.60;99.90;;;;;;5051556;28;20072;-63
2023/07/25 04:16:05;;;;;;;7.32;4.65;;;15.60;99.90;;;;;;5032996;28;20504;-64
2023/07/25 04:18:31;;;;;;;7.03;4.05;;;15.60;99.90;;;;;;5051425;28;20024;-64
2023/07/25 04:20:56;;;;;;;5.57;3.78;;;15.60;99.90;;;;;;5031784;28;20029;-63
2023/07/25 04:23:22;;;;;;;7.28;3.70;;;15.60;99.90;;;;;;5051503;28;20025;-63
2023/07/25 04:25:48;;;;;;;4.47;3.88;;;15.60;99.90;;;;;;5030156;28;20033;-63
2023/07/25 04:28:14;;;;;;;4.93;3.55;;;15.60;99.90;;;;;;5051314;28;20103;-63
2023/07/25 04:30:40;;;;;;;5.53;3.15;;;15.70;99.90;;;;;;5039790;28;20141;-63
2023/07/25 04:33:06;;;;;;;6.70;3.58;;;15.70;99.90;;;;;;5049416;28;20052;-63
2023/07/25 04:35:32;;;;;;;4.45;2.92;;;15.80;99.90;;;;;;5031427;28;20034;-63
2023/07/25 04:37:57;;;;;;;5.95;3.50;;;16.00;99.90;;;;;;5030207;28;20452;-63
2023/07/25 04:40:23;;;;;;;3.35;2.95;;;16.60;99.90;;;;;;5050209;28;20021;-63
2023/07/25 04:42:48;;;;;;;3.38;2.63;;;16.70;99.90;;;;;;5029616;28;20033;-64
2023/07/25 04:45:14;;;;;;;4.47;2.58;;;16.90;99.90;;;;;;5050048;28;20047;-64
2023/07/25 04:47:39;;;;;;;2.42;2.20;;;17.80;99.90;;;;;;5029720;28;20456;-63
2023/07/25 04:50:05;;;;;;;5.60;2.60;;;18.90;99.90;;;;;;5048950;28;20087;-63
2023/07/25 04:52:31;;;;;;;2.28;2.08;;;20.00;99.90;;;;;;5028031;28;20434;-51
2023/07/25 04:54:58;;;;;;;3.00;2.13;;;20.90;99.20;;;;;;5050162;28;20059;-63
2023/07/25 04:57:24;;;;;;;2.63;1.85;;;21.50;96.30;;;;;;5029268;28;20112;-63
2023/07/25 04:59:50;;;;;;;2.58;1.90;;;21.50;95.50;;;;;;5049947;28;20124;-63
2023/07/25 05:02:17;;;;;;;4.25;2.20;;;21.30;96.50;;;;;;5029744;28;20105;-63
2023/07/25 05:04:42;;;;;;;5.05;2.28;;;21.20;96.70;;;;;;5040687;28;20029;-63
2023/07/25 05:07:08;;;;;;;3.42;2.47;;;20.90;90.70;;;;;;5040336;28;20169;-63
2023/07/25 05:09:33;;;;;;;4.55;2.72;;;20.40;92.90;;;;;;5030850;28;20029;-63
2023/07/25 05:11:59;;;;;;;5.60;2.65;;;20.00;93.80;;;;;;5047884;28;20106;-63
2023/07/25 05:14:24;;;;;;;4.28;2.30;;;19.70;94.40;;;;;;5029779;28;20292;-63
2023/07/25 05:16:50;;;;;;;4.07;2.50;;;19.40;94.50;;;;;;5046487;28;20025;-63
2023/07/25 05:19:15;;;;;;;3.78;2.38;;;19.10;93.90;;;;;;5031272;28;20493;-63
2023/07/25 05:21:40;;;;;;;5.10;2.85;;;18.90;93.90;;;;;;5047697;28;20078;-63
2023/07/25 05:24:06;;;;;;;3.95;2.72;;;18.70;94.60;;;;;;5030777;28;20043;-63
2023/07/25 05:26:31;;;;;;;7.80;2.92;;;18.60;95.10;;;;;;5047390;28;20036;-62
2023/07/25 05:28:57;;;;;;;3.72;2.35;;;18.50;95.60;;;;;;5050271;28;20095;-62
2023/07/25 05:31:22;;;;;;;3.58;2.30;;;18.50;96.40;;;;;;5034087;28;20049;-62
2023/07/25 05:33:48;;;;;;;3.67;2.70;;;18.70;96.20;;;;;;5050508;28;20106;-62
2023/07/25 05:36:13;;;;;;;3.42;2.38;;;19.00;94.90;;;;;;5032657;28;20017;-62
2023/07/25 05:38:39;;;;;;;3.80;2.10;;;19.20;94.90;;;;;;5049907;28;20036;-63
2023/07/25 05:41:04;;;;;;;3.78;2.30;;;19.20;94.10;;;;;;5031480;28;20405;-63
2023/07/25 05:43:30;;;;;;;6.55;2.15;;;19.40;93.70;;;;;;5049635;28;20055;-62
2023/07/25 05:45:55;;;;;;;4.03;2.55;;;19.90;93.30;;;;;;5030116;28;20037;-61
2023/07/25 05:48:21;;;;;;;4.88;2.40;;;20.30;92.00;;;;;;5049920;28;20025;-63
2023/07/25 05:50:51;;;;;;;3.80;2.55;;;20.30;91.60;;;;;;5028775;28;20033;-61
2023/07/25 05:53:16;;;;;;;2.15;1.83;;;20.10;91.90;;;;;;5049795;28;20366;-62
2023/07/25 05:55:45;;;;;;;3.08;2.05;;;20.00;92.20;;;;;;5030145;28;20037;-62
2023/07/25 05:58:14;;;;;;;3.75;2.22;;;19.80;92.60;;;;;;5029494;28;20116;-62
2023/07/25 06:00:40;;;;;;;5.15;2.33;;;19.70;92.20;;;;;;5049221;28;20037;-62
2023/07/25 06:03:05;;;;;;;3.42;1.85;;;19.60;92.50;;;;;;5045879;28;20455;-62
2023/07/25 06:05:33;;;;;;;2.33;1.98;;;19.60;92.70;;;;;;5036370;28;20036;-62
2023/07/25 06:07:59;;;;;;;3.22;2.03;;;20.30;92.30;;;;;;5028137;28;20025;-62
2023/07/25 06:10:24;;;;;;;3.03;2.08;;;21.90;88.20;;;;;;5048890;28;20059;-61
2023/07/25 06:12:50;;;;;;;2.63;1.73;;;23.30;83.40;;;;;;5028119;28;20029;-62
2023/07/25 06:15:15;;;;;;;5.28;2.33;;;23.60;79.70;;;;;;5048862;28;20525;-62
2023/07/25 06:17:40;;;;;;;5.75;2.33;;;23.70;77.60;;;;;;5027017;28;20033;-61
2023/07/25 06:20:06;;;;;;;2.88;2.00;;;23.70;77.90;;;;;;5029585;28;20030;-62
2023/07/25 06:22:34;;;;;;;4.22;2.50;;;23.40;77.10;;;;;;5040873;28;20029;-61
2023/07/25 06:25:00;;;;;;;4.80;2.17;;;23.00;76.60;;;;;;5029516;28;20052;-62
2023/07/25 06:27:26;;;;;;;2.95;1.77;;;22.50;76.80;;;;;;5041562;28;20529;-63
2023/07/25 06:29:51;;;;;;;3.30;1.80;;;22.80;77.20;;;;;;5030764;28;20032;-63
2023/07/25 06:32:17;;;;;;;3.80;1.80;;;23.60;74.70;;;;;;5043753;28;20494;-62
2023/07/25 06:34:42;;;;;;;2.72;1.77;;;25.00;70.70;;;;;;5029425;28;20030;-62
2023/07/25 06:37:08;;;;;;;4.80;1.70;;;26.80;66.60;;;;;;5043923;28;20033;-63
2023/07/25 06:39:33;;;;;;;2.60;1.27;;;28.20;62.30;;;;;;5029184;28;20393;-62
2023/07/25 06:41:59;;;;;;;1.70;1.35;;;29.60;57.40;;;;;;5045387;28;20029;-61
2023/07/25 06:44:24;;;;;;;1.83;1.40;;;30.90;52.10;;;;;;5029202;28;20052;-62
2023/07/25 06:46:50;;;;;;;2.38;1.25;;;30.80;47.30;;;;;;5046521;28;20400;-61
2023/07/25 06:49:15;;;;;;;2.65;1.52;;;30.40;46.90;;;;;;5009514;28;20397;-63
2023/07/25 06:51:41;;;;;;;2.88;1.50;;;29.60;46.60;;;;;;5047661;28;20044;-62
2023/07/25 06:54:06;;;;;;;4.20;1.75;;;28.40;46.10;;;;;;5027649;28;20030;-62
2023/07/25 06:56:32;;;;;;;3.25;1.52;;;27.10;46.40;;;;;;5048151;28;20484;-63
2023/07/25 06:58:58;;;;;;;2.38;1.13;;;26.30;46.60;;;;;;5027788;28;20558;-62
2023/07/25 07:01:27;;;;;;;2.03;1.15;;;26.70;46.30;;;;;;5048730;28;20040;-61
2023/07/25 07:03:56;;;;;;;3.20;1.30;;;27.50;44.30;;;;;;5027022;28;20091;-61
2023/07/25 07:06:21;;;;;;;2.65;1.30;;;27.90;41.70;;;;;;5045218;28;20086;-62
2023/07/25 07:08:47;;;;;;;2.63;1.00;;;28.90;39.50;;;;;;5027468;28;20104;-62
2023/07/25 07:11:12;;;;;;;2.75;1.15;;;28.20;38.90;;;;;;5046574;28;20432;-62
2023/07/25 07:13:38;;;;;;;2.97;1.23;;;27.70;36.30;;;;;;5027640;28;20032;-62
2023/07/25 07:16:03;;;;;;;3.30;1.27;;;28.00;36.90;;;;;;5047915;28;20039;-62
2023/07/25 07:18:29;;;;;;;2.58;1.10;;;28.40;35.60;;;;;;5027230;28;20037;-61
2023/07/25 07:20:54;;;;;;;2.03;1.10;;;29.30;35.70;;;;;;5047968;28;20029;-62
2023/07/25 07:23:20;;;;;;;3.28;1.17;;;30.60;34.70;;;;;;5027406;28;20065;-62
2023/07/25 07:25:45;;;;;;;2.50;1.00;;;30.90;33.30;;;;;;5046583;28;20043;-62
2023/07/25 07:28:11;;;;;;;1.42;0.90;;;30.60;28.00;;;;;;5027267;28;20378;-62
2023/07/25 07:30:37;;;;;;;1.60;0.98;;;31.50;30.30;;;;;;5039559;28;20067;-62
2023/07/25 07:33:03;;;;;;;1.90;1.00;;;32.40;27.50;;;;;;5035991;28;20569;-62
2023/07/25 07:35:28;;;;;;;1.13;1.00;;;32.60;27.30;;;;;;5046355;28;20035;-61
2023/07/25 07:37:54;;;;;;;1.98;1.10;;;33.30;25.80;;;;;;5027239;28;20025;-62
2023/07/25 07:40:19;;;;;;;1.92;0.80;;;34.10;24.10;;;;;;5050593;28;20089;-62
2023/07/25 07:42:45;;;;;;;1.15;0.98;;;34.70;22.70;;;;;;5031061;28;20036;-62
2023/07/25 07:45:10;;;;;;;3.55;1.33;;;34.70;21.50;;;;;;5032295;28;20033;-62
2023/07/25 07:47:36;;;;;;;1.52;0.88;;;34.20;21.00;;;;;;5043344;28;20028;-62
2023/07/25 07:50:01;;;;;;;3.20;1.20;;;34.50;20.00;;;;;;5032520;28;20029;-62
2023/07/25 07:52:27;;;;;;;1.33;0.95;;;34.90;17.70;;;;;;5044595;28;20504;-62
2023/07/25 07:54:52;;;;;;;3.25;1.00;;;35.10;17.60;;;;;;5032086;28;20026;-62
2023/07/25 07:57:18;;;;;;;3.83;1.08;;;34.80;15.30;;;;;;5045846;28;20056;-63
2023/07/25 07:59:44;;;;;;;2.38;1.27;;;34.00;17.30;;;;;;5032237;28;20036;-62
2023/07/25 08:02:09;;;;;;;1.92;1.20;;;33.60;17.40;;;;;;5045483;28;20718;-62
2023/07/25 08:04:35;;;;;;;1.58;1.05;;;32.80;17.10;;;;;;5033543;28;20037;-62
2023/07/25 08:07:01;;;;;;;2.65;1.20;;;32.20;17.30;;;;;;5045933;28;20471;-62
2023/07/25 08:09:26;;;;;;;4.07;1.17;;;31.80;17.20;;;;;;5032116;28;20022;-62
2023/07/25 08:11:52;;;;;;;1.85;1.17;;;30.90;17.50;;;;;;5049069;28;20025;-61
2023/07/25 08:14:17;;;;;;;1.17;0.98;;;30.70;17.90;;;;;;5051999;28;20471;-71
2023/07/25 08:16:43;;;;;;;1.77;1.05;;;31.20;17.00;;;;;;5032384;28;20041;-70
2023/07/25 08:19:08;;;;;;;2.22;1.08;;;31.00;16.90;;;;;;5029970;28;20506;-70
2023/07/25 08:21:34;;;;;;;3.10;1.10;;;30.30;17.20;;;;;;5050907;28;20037;-70
2023/07/25 08:23:59;;;;;;;3.58;1.30;;;30.40;17.30;;;;;;5030367;28;20041;-70
2023/07/25 08:26:25;;;;;;;2.85;1.25;;;30.40;16.80;;;;;;5051090;28;20136;-70
2023/07/25 08:28:50;;;;;;;2.35;1.20;;;30.80;15.70;;;;;;5030244;28;20112;-70
2023/07/25 08:31:16;;;;;;;2.72;1.08;;;30.70;16.70;;;;;;5050747;28;20106;-71
2023/07/25 08:33:44;;;;;;;1.30;1.00;;;31.10;16.70;;;;;;5029186;28;20022;-71
2023/07/25 08:36:10;;;;;;;1.40;0.88;;;31.50;16.50;;;;;;5050845;28;20029;-71
2023/07/25 08:38:36;;;;;;;3.00;1.38;;;31.60;16.50;;;;;;5030170;28;20032;-71
2023/07/25 08:41:20;;;;;;;1.42;0.82;;;31.60;15.70;;;;;;5050900;28;20025;-72
2023/07/25 08:43:47;;;;;;;1.00;0.88;;;31.60;15.40;;;;;;5025526;28;20072;-72
2023/07/25 08:46:15;;;;;;;1.88;0.93;;;31.50;15.90;;;;;;5050535;28;20131;-72
2023/07/25 08:48:41;;;;;;;1.25;0.90;;;31.00;15.90;;;;;;5029722;28;20021;-72
2023/07/25 08:51:22;;;;;;;4.95;1.13;;;30.80;16.00;;;;;;5050428;28;20036;-71
2023/07/25 08:54:16;;;;;;;1.35;0.80;;;30.70;16.00;;;;;;5025514;28;20021;-72
2023/07/25 08:56:42;;;;;;;0.77;0.70;;;30.40;13.90;;;;;;5011507;28;20065;-72
2023/07/25 08:59:09;;;;;;;2.05;0.90;;;30.00;16.10;;;;;;5029112;28;20053;-72
2023/07/25 09:01:34;;;;;;;2.70;0.93;;;29.70;16.00;;;;;;5050454;28;20033;-73
2023/07/25 09:04:02;;;;;;;3.22;1.30;;;29.70;16.10;;;;;;5029595;28;20030;-72
2023/07/25 09:06:30;;;;;;;1.23;0.95;;;29.40;15.60;;;;;;5046793;28;20032;-71
2023/07/25 09:08:55;;;;;;;1.35;1.00;;;29.00;15.90;;;;;;5029260;28;20030;-72
2023/07/25 09:11:21;;;;;;;1.65;0.98;;;28.70;15.70;;;;;;5050194;28;20385;-72
2023/07/25 09:13:48;;;;;;;2.38;1.00;;;28.50;15.80;;;;;;5029506;28;20026;-71
2023/07/25 09:16:14;;;;;;;2.53;0.98;;;28.40;16.00;;;;;;5050191;28;20029;-72
2023/07/25 09:18:39;;;;;;;1.13;0.80;;;28.40;15.70;;;;;;5029526;28;20528;-72
2023/07/25 09:21:05;;;;;;;2.20;0.93;;;28.40;15.90;;;;;;5049853;28;20084;-72
2023/07/25 09:23:31;;;;;;;2.70;1.00;;;28.20;16.10;;;;;;5029163;28;20032;-73
2023/07/25 09:26:04;;;;;;;2.50;1.00;;;28.20;16.40;;;;;;5050037;28;20037;-72
2023/07/25 09:28:31;;;;;;;2.67;0.88;;;28.20;15.60;;;;;;5028781;28;20022;-71
2023/07/25 09:30:57;;;;;;;2.20;0.90;;;28.30;15.60;;;;;;5039115;28;20046;-72
2023/07/25 09:33:27;;;;;;;2.55;0.98;;;28.30;15.60;;;;;;5035311;28;20516;-72
2023/07/25 09:35:53;;;;;;;3.17;1.05;;;28.50;15.30;;;;;;5049652;28;20029;-72
2023/07/25 09:38:19;;;;;;;2.85;0.98;;;28.70;15.30;;;;;;5028959;28;20098;-73
2023/07/25 09:40:48;;;;;;;1.00;0.90;;;28.90;15.50;;;;;;5049703;28;20492;-72
2023/07/25 09:43:24;;;;;;;3.13;1.08;;;28.90;14.90;;;;;;5028878;28;20029;-72
2023/07/25 09:45:51;;;;;;;2.00;1.00;;;28.90;15.00;;;;;;5049695;28;20051;-71
2023/07/25 09:48:17;;;;;;;1.77;1.05;;;28.80;15.40;;;;;;5028751;28;20037;-72
2023/07/25 09:50:45;;;;;;;1.92;1.00;;;28.80;15.50;;;;;;5049419;28;20028;-72
2023/07/25 09:53:13;;;;;;;1.30;1.13;;;28.70;15.30;;;;;;5028022;28;20041;-72
2023/07/25 09:55:39;;;;;;;2.13;1.00;;;28.90;15.40;;;;;;5049368;28;20488;-72
2023/07/25 09:58:05;;;;;;;0.95;0.88;;;29.10;15.50;;;;;;5028592;28;20191;-73
2023/07/25 10:00:31;;;;;;;3.83;0.70;;;29.20;15.30;;;;;;5048943;28;20670;-74
2023/07/25 10:02:58;;;;;;;1.77;1.10;;;29.30;14.90;;;;;;5028047;28;20433;-72
2023/07/25 10:05:25;;;;;;;1.30;0.93;;;29.30;15.00;;;;;;5034630;28;20060;-71
2023/07/25 10:07:52;;;;;;;2.28;1.17;;;29.40;15.00;;;;;;5038765;28;20049;-72
2023/07/25 10:10:18;;;;;;;3.25;1.20;;;29.10;15.10;;;;;;5048008;28;20114;-73
2023/07/25 10:12:44;;;;;;;4.50;1.40;;;28.70;15.40;;;;;;5028297;28;20061;-73
2023/07/25 10:15:11;;;;;;;2.58;1.30;;;28.40;15.50;;;;;;5029635;28;20033;-73
2023/07/25 10:17:37;;;;;;;3.67;0.85;;;28.10;15.30;;;;;;5040685;28;20033;-73
2023/07/25 10:20:05;;;;;;;1.40;1.00;;;28.10;15.40;;;;;;5029855;28;20379;-73
2023/07/25 10:22:42;;;;;;;2.20;1.20;;;28.00;15.30;;;;;;5041387;28;20021;-72
2023/07/25 10:25:17;;;;;;;1.10;0.90;;;27.80;15.40;;;;;;5029313;28;20033;-73
2023/07/25 10:27:43;;;;;;;;;;;27.60;15.50;;;;;;5015764;28;20033;-73
2023/07/25 10:30:41;;;;;;;;;;;27.50;16.20;;;;;;5033473;28;19974;-72
2023/07/25 10:33:07;;;;;;;;;;;27.30;15.40;;;;;;5018283;28;19909;-73
2023/07/25 10:35:39;;;;;;;1.70;0.85;;;27.20;16.50;;;;;;5048530;28;20013;-73
2023/07/25 10:38:09;;;;;;;2.08;0.88;;;27.20;16.10;;;;;;5027749;28;20037;-73
2023/07/25 10:40:58;;;;;;;2.72;0.98;;;27.20;16.10;;;;;;5048724;28;20071;-73
2023/07/25 10:43:55;;;;;;;2.28;1.05;;;27.20;16.20;;;;;;5020691;28;20026;-72
2023/07/25 10:46:25;;;;;;;1.73;1.17;;;27.20;16.20;;;;;;5009677;28;20038;-74
2023/07/25 10:48:53;;;;;;;1.42;0.90;;;27.20;16.30;;;;;;5030414;28;20384;-73
2023/07/25 10:51:21;;;;;;;1.75;1.10;;;27.20;16.30;;;;;;5048822;28;20041;-74
2023/07/25 10:54:10;;;;;;;2.17;0.88;;;27.30;16.50;;;;;;5027382;28;20021;-62
2023/07/25 10:56:40;;;;;;;1.40;0.95;;;27.00;17.10;;;;;;5048455;28;20032;-60
2023/07/25 10:59:08;;;;;;;1.65;1.08;;;26.90;16.70;;;;;;5027560;28;20445;-62
2023/07/25 11:02:00;;;;;;;1.35;1.13;;;26.90;16.80;;;;;;5048363;28;20112;-62
2023/07/25 11:04:32;;;;;;;1.30;0.90;;;26.90;16.40;;;;;;5010668;28;20104;-61
2023/07/25 11:07:19;;;;;;;2.50;0.85;;;26.90;16.70;;;;;;5043221;28;20078;-62
2023/07/25 11:09:45;;;;;;;1.63;0.95;;;26.80;16.40;;;;;;5028914;28;20022;-62
2023/07/25 11:12:11;;;;;;;1.98;1.00;;;26.70;16.50;;;;;;5043142;28;20194;-62
2023/07/25 11:14:44;;;;;;;1.33;0.90;;;26.50;16.70;;;;;;5028039;28;20036;-62
2023/07/25 11:17:13;;;;;;;2.50;1.10;;;26.50;17.00;;;;;;5043394;28;20029;-62
2023/07/25 11:19:39;;;;;;;3.70;0.98;;;26.50;17.10;;;;;;5028894;28;20508;-63
2023/07/25 11:22:09;;;;;;;3.30;0.73;;;26.50;17.00;;;;;;5044103;28;20033;-63
2023/07/25 11:24:42;;;;;;;1.27;0.98;;;26.40;16.90;;;;;;5028835;28;20033;-62
2023/07/25 11:27:07;;;;;;;2.78;1.08;;;26.50;17.10;;;;;;5043787;28;20597;-63
2023/07/25 11:29:33;;;;;;;1.65;0.82;;;26.50;16.60;;;;;;5028721;28;20021;-62
2023/07/25 11:32:01;;;;;;;2.00;1.05;;;26.60;16.80;;;;;;5044804;28;20059;-63
2023/07/25 11:34:26;;;;;;;2.83;1.27;;;26.60;16.70;;;;;;5028644;28;20665;-62
2023/07/25 11:36:52;;;;;;;1.65;1.10;;;26.40;16.60;;;;;;5045437;28;20036;-62
2023/07/25 11:39:18;;;;;;;1.55;0.80;;;26.20;16.70;;;;;;5028615;28;20416;-63
2023/07/25 11:41:45;;;;;;;1.63;0.90;;;26.10;16.80;;;;;;5047855;28;20048;-63
2023/07/25 11:44:13;;;;;;;2.38;0.88;;;26.00;16.90;;;;;;5025556;28;20026;-63
2023/07/25 11:46:40;;;;;;;1.85;0.90;;;25.80;17.10;;;;;;5047988;28;20087;-62
2023/07/25 11:49:08;;;;;;;1.27;0.90;;;25.70;17.40;;;;;;5027024;28;20497;-63
2023/07/25 11:51:34;;;;;;;1.88;0.85;;;25.50;17.90;;;;;;5047854;28;20108;-63
2023/07/25 11:54:00;;;;;;;2.17;1.10;;;25.50;17.70;;;;;;5027085;28;20557;-63
2023/07/25 11:56:25;;;;;;;1.58;0.93;;;25.60;17.60;;;;;;5047746;28;20033;-63
2023/07/25 11:58:51;;;;;;;3.28;0.82;;;25.70;17.10;;;;;;5027044;28;20040;-64
2023/07/25 12:01:18;;;;;;;2.20;1.10;;;25.80;16.90;;;;;;5047665;28;20573;-66
2023/07/25 12:03:48;;;;;;;2.05;0.88;;;25.90;16.90;;;;;;5026829;28;20109;-63
2023/07/25 12:06:14;;;;;;;1.73;0.98;;;25.90;16.60;;;;;;5044796;28;20037;-60
2023/07/25 12:08:41;;;;;;;3.38;0.98;;;25.80;16.80;;;;;;5026914;28;20095;-60
2023/07/25 12:11:12;;;;;;;1.65;0.90;;;25.30;17.20;;;;;;5047506;28;20105;-60
2023/07/25 12:13:50;;;;;;;1.67;1.13;;;25.20;18.00;;;;;;5021582;28;20040;-60
2023/07/25 12:16:30;;;;;;;1.25;0.93;;;25.00;18.90;;;;;;5047968;28;20068;-63
2023/07/25 12:19:03;;;;;;;1.10;0.82;;;25.00;19.30;;;;;;5026645;28;20449;-62
2023/07/25 12:21:30;;;;;;;1.83;1.00;;;24.90;19.10;;;;;;5008493;28;20026;-63
2023/07/25 12:24:01;;;;;;;3.45;1.00;;;24.90;18.90;;;;;;5028249;28;20029;-63
2023/07/25 12:26:27;;;;;;;1.38;0.88;;;25.00;19.10;;;;;;5050208;28;20045;-63
2023/07/25 12:28:54;;;;;;;3.92;1.30;;;24.90;18.90;;;;;;5030299;28;20049;-64
2023/07/25 12:31:20;;;;;;;3.05;1.13;;;25.00;19.00;;;;;;5050944;28;20060;-64
2023/07/25 12:33:48;;;;;;;2.85;1.10;;;25.00;19.10;;;;;;5030151;28;20029;-63
2023/07/25 12:36:15;;;;;;;2.35;1.10;;;25.10;18.00;;;;;;5051226;28;20397;-63
2023/07/25 12:38:41;;;;;;;1.23;0.98;;;24.70;18.10;;;;;;5030058;28;20104;-63
2023/07/25 12:41:07;;;;;;;1.92;1.00;;;24.50;18.10;;;;;;5050706;28;20025;-63
2023/07/25 12:43:33;;;;;;;2.30;1.00;;;24.40;18.40;;;;;;5029963;28;20017;-63
2023/07/25 12:45:59;;;;;;;1.00;0.95;;;24.40;18.70;;;;;;5050597;28;20374;-64
2023/07/25 12:48:24;;;;;;;1.33;0.88;;;24.40;18.90;;;;;;5030095;28;20029;-62
2023/07/25 12:50:50;;;;;;;1.60;0.90;;;24.50;19.00;;;;;;5050333;28;20036;-64